Time;durP1;ratioP1;P1;durP2;ratioP2;P2;SDS_P1;SDS_P2;PMS_P1;PMS_P2;Temp;Humidity;BMP_temperature;BMP_pressure;BME280_temperature;BME280_humidity;BME280_pressure;Samples;Min_cycle;Max_cycle;Signal;HPM_P1;HPM_P2
2022/03/12 00:02:09;;;;;;;41.38;28.27;;;11.30;99.90;;;11.68;65.41;101005.13;5092204;28;20044;-59
2022/03/12 00:04:38;;;;;;;42.55;26.50;;;11.40;99.90;;;11.77;64.97;101002.38;5073640;28;20071;-63
2022/03/12 00:07:09;;;;;;;36.03;25.42;;;11.50;99.90;;;11.57;64.42;100982.19;5091530;28;20044;-61
2022/03/12 00:09:38;;;;;;;36.33;27.08;;;11.50;99.90;;;11.75;64.24;100998.88;5091937;28;20116;-61
2022/03/12 00:12:12;;;;;;;39.97;24.88;;;11.50;99.90;;;11.67;64.02;101007.78;5092069;28;20121;-64
2022/03/12 00:14:41;;;;;;;33.58;24.25;;;11.50;99.90;;;11.63;63.68;101006.00;5092104;28;20071;-63
2022/03/12 00:17:12;;;;;;;36.97;25.77;;;11.40;99.90;;;11.67;63.41;101011.28;5091936;28;20064;-61
2022/03/12 00:19:42;;;;;;;40.92;27.15;;;11.40;99.90;;;11.58;63.30;101002.47;5091561;28;20052;-62
2022/03/12 00:22:12;;;;;;;40.70;27.15;;;11.50;99.90;;;11.51;64.21;101017.56;5073079;28;20482;-61
2022/03/12 00:24:43;;;;;;;37.05;25.73;;;11.30;99.90;;;11.12;64.50;101020.41;5091723;28;20131;-63
2022/03/12 00:27:13;;;;;;;43.42;26.83;;;11.00;99.90;;;11.01;65.14;101023.97;5073517;28;20048;-60
2022/03/12 00:29:42;;;;;;;42.72;27.75;;;10.80;99.90;;;10.84;65.80;101016.09;5091744;28;20036;-68
2022/03/12 00:32:14;;;;;;;39.00;27.15;;;10.60;99.90;;;10.77;66.53;101017.88;5091556;28;20036;-61
2022/03/12 00:34:42;;;;;;;38.38;25.90;;;10.50;99.90;;;10.75;67.48;101024.94;5073582;28;20075;-60
2022/03/12 00:37:11;;;;;;;38.22;27.10;;;10.50;99.90;;;10.78;68.41;101022.28;5095102;28;20123;-60
2022/03/12 00:39:44;;;;;;;42.95;26.98;;;10.50;99.90;;;10.63;69.95;101035.53;5095097;28;20047;-59
2022/03/12 00:42:13;;;;;;;39.65;27.75;;;10.40;99.90;;;10.64;71.22;101026.75;5095438;28;20097;-59
2022/03/12 00:44:41;;;;;;;37.55;26.67;;;10.40;99.90;;;10.67;72.27;101034.66;5095341;28;20127;-59
2022/03/12 00:47:09;;;;;;;38.80;26.42;;;10.40;99.90;;;10.61;73.21;101044.34;5094996;28;20117;-59
2022/03/12 00:49:38;;;;;;;40.15;27.10;;;10.40;99.90;;;10.56;73.31;101036.44;5094949;28;20039;-59
2022/03/12 00:52:07;;;;;;;36.05;27.02;;;10.30;99.90;;;10.51;73.87;101018.84;5094935;28;20087;-59
2022/03/12 00:54:36;;;;;;;37.47;26.10;;;10.30;99.90;;;10.58;73.69;101044.38;5095135;28;20458;-59
2022/03/12 00:57:06;;;;;;;40.15;27.83;;;10.30;99.90;;;10.18;73.33;100972.16;5094701;28;20438;-59
2022/03/12 00:59:35;;;;;;;41.28;28.50;;;10.30;99.90;;;10.62;71.96;101043.50;5095337;28;20066;-59
2022/03/12 01:02:03;;;;;;;38.63;27.80;;;10.40;99.90;;;10.45;72.70;101038.22;5095011;28;20050;-59
2022/03/12 01:04:32;;;;;;;39.40;26.73;;;10.20;99.90;;;10.45;71.85;101047.94;5094815;28;20051;-59
2022/03/12 01:07:00;;;;;;;41.05;26.55;;;10.20;99.90;;;10.53;71.59;101043.53;5076787;28;20509;-59
2022/03/12 01:09:29;;;;;;;39.65;28.45;;;10.20;99.90;;;10.49;71.82;101036.47;5094856;28;20044;-59
2022/03/12 01:11:57;;;;;;;38.67;28.45;;;10.20;99.90;;;10.49;71.37;101039.13;5094925;28;20071;-59
2022/03/12 01:14:29;;;;;;;41.78;28.10;;;10.20;99.90;;;10.42;72.02;101039.97;5094744;28;20076;-59
2022/03/12 01:16:59;;;;;;;38.42;27.27;;;10.20;99.90;;;10.37;72.37;101041.75;5094888;28;20261;-59
2022/03/12 01:19:27;;;;;;;40.47;27.63;;;10.10;99.90;;;10.29;73.32;101046.16;5094562;28;20044;-59
2022/03/12 01:21:55;;;;;;;40.08;26.88;;;10.10;99.90;;;10.25;73.99;101037.38;5094840;28;20135;-59
2022/03/12 01:24:24;;;;;;;38.30;27.63;;;10.00;99.90;;;10.38;73.76;101031.19;5094403;28;20048;-60
2022/03/12 01:26:53;;;;;;;38.42;27.15;;;10.10;99.90;;;10.28;73.90;101040.00;5094376;28;20470;-59
2022/03/12 01:29:21;;;;;;;36.97;27.92;;;10.10;99.90;;;10.34;74.57;101042.63;5094820;28;20075;-59
2022/03/12 01:31:51;;;;;;;41.17;26.67;;;10.10;99.90;;;10.40;75.37;101052.31;5076707;28;20521;-59
2022/03/12 01:34:22;;;;;;;38.03;26.73;;;10.10;99.90;;;10.51;75.57;101051.44;5094854;28;20079;-59
2022/03/12 01:36:51;;;;;;;37.13;25.35;;;10.20;99.90;;;10.58;75.97;101041.72;5094365;28;20409;-59
2022/03/12 01:39:20;;;;;;;40.30;26.05;;;10.30;99.90;;;10.61;75.59;101044.34;5094320;28;20134;-61
2022/03/12 01:41:48;;;;;;;38.22;26.15;;;10.30;99.90;;;10.54;76.56;101038.22;5093981;28;20047;-59
2022/03/12 01:44:17;;;;;;;38.42;25.95;;;10.30;99.90;;;10.51;77.21;101038.19;5094222;28;20048;-59
2022/03/12 01:46:47;;;;;;;34.95;25.83;;;10.20;99.90;;;10.56;77.63;101043.50;5093696;28;20044;-61
2022/03/12 01:49:19;;;;;;;36.80;26.02;;;10.30;99.90;;;10.64;78.45;101055.84;5094250;28;20044;-60
2022/03/12 01:51:50;;;;;;;30.55;22.90;;;10.30;99.90;;;10.64;79.34;101042.63;5094014;28;20379;-59
2022/03/12 01:54:21;;;;;;;35.13;26.65;;;10.40;99.90;;;10.78;79.78;101047.88;5093694;28;20564;-59
2022/03/12 01:56:51;;;;;;;33.33;24.83;;;10.40;99.90;;;10.94;79.84;101051.38;5093567;28;20512;-60
2022/03/12 01:59:20;;;;;;;29.20;20.55;;;10.60;99.90;;;10.93;81.08;101057.53;5094074;28;20147;-59
2022/03/12 02:01:52;;;;;;;27.80;20.20;;;10.60;99.90;;;11.17;81.14;101057.47;5093742;28;20390;-59
2022/03/12 02:04:24;;;;;;;25.98;20.20;;;10.80;99.90;;;11.20;81.42;101046.84;5093503;28;20048;-59
2022/03/12 02:06:53;;;;;;;24.25;18.63;;;11.00;99.90;;;11.25;81.86;101061.81;5075504;28;20097;-59
2022/03/12 02:09:22;;;;;;;25.52;18.42;;;11.00;99.90;;;11.01;82.64;101027.50;5093964;28;20040;-59
2022/03/12 02:11:51;;;;;;;25.75;19.10;;;11.00;99.90;;;11.28;82.94;101064.47;5093734;28;20362;-59
2022/03/12 02:14:22;;;;;;;24.63;18.98;;;11.00;99.90;;;11.33;83.21;101057.38;5093238;28;20405;-59
2022/03/12 02:16:54;;;;;;;22.85;17.48;;;11.10;99.90;;;11.36;83.10;101062.63;5093533;28;20052;-59
2022/03/12 02:19:26;;;;;;;24.65;19.20;;;11.10;99.90;;;11.46;83.25;101074.97;5093455;28;20063;-59
2022/03/12 02:21:57;;;;;;;23.38;18.13;;;11.20;99.90;;;11.46;83.14;101071.41;5093516;28;20044;-59
2022/03/12 02:24:31;;;;;;;22.38;17.58;;;11.20;99.90;;;11.50;83.21;101062.56;5093029;28;20054;-59
2022/03/12 02:27:02;;;;;;;23.02;18.13;;;11.30;99.90;;;11.54;83.38;101073.16;5093277;28;20051;-60
2022/03/12 02:29:31;;;;;;;21.90;17.52;;;11.30;99.90;;;11.46;83.38;101066.13;5093005;28;20184;-59
2022/03/12 02:32:04;;;;;;;20.13;16.25;;;11.30;99.90;;;11.57;83.39;101073.16;5092904;28;20072;-59
2022/03/12 02:34:38;;;;;;;22.00;16.70;;;11.30;99.90;;;11.60;83.50;101075.78;5093157;28;20041;-59
2022/03/12 02:37:07;;;;;;;20.13;16.60;;;11.40;99.90;;;11.60;83.44;101073.13;5092803;28;20094;-59
2022/03/12 02:39:38;;;;;;;20.92;16.92;;;11.40;99.90;;;11.51;84.03;101073.19;5093150;28;20090;-60
2022/03/12 02:42:09;;;;;;;19.23;15.35;;;11.30;99.90;;;10.81;84.00;100964.06;5093016;28;20048;-59
2022/03/12 02:44:37;;;;;;;20.30;15.85;;;11.30;99.90;;;11.58;84.03;101066.97;5092581;28;20051;-59
2022/03/12 02:47:14;;;;;;;20.10;15.90;;;11.30;99.90;;;11.63;83.87;101083.69;5092645;28;20044;-60
2022/03/12 02:49:49;;;;;;;17.83;14.75;;;11.40;99.90;;;11.09;83.91;100982.47;5074607;28;20489;-59
2022/03/12 02:52:19;;;;;;;17.17;13.27;;;11.40;99.90;;;11.59;84.41;101081.09;5092956;28;20134;-59
2022/03/12 02:54:50;;;;;;;;;;;11.40;99.90;;;11.61;84.35;101069.56;5093384;28;20056;-60
2022/03/12 02:57:25;;;;;;;18.48;14.48;;;11.40;99.90;;;11.68;84.21;101063.41;5092500;28;19920;-59
2022/03/12 02:59:55;;;;;;;17.40;12.82;;;11.40;99.90;;;11.53;84.40;101089.06;5091573;28;20128;-59
2022/03/12 03:02:32;;;;;;;15.90;13.15;;;11.40;99.90;;;11.67;84.50;101080.19;5092381;28;20075;-59
2022/03/12 03:05:01;;;;;;;13.95;12.18;;;11.40;99.90;;;11.66;84.21;101099.63;5092903;28;20075;-59
2022/03/12 03:07:30;;;;;;;14.40;12.65;;;11.40;99.90;;;11.81;83.92;101080.09;5092584;28;20051;-59
2022/03/12 03:10:00;;;;;;;16.88;12.77;;;11.50;99.90;;;11.81;83.85;101081.91;5092132;28;20040;-59
2022/03/12 03:12:28;;;;;;;13.75;11.88;;;11.60;99.90;;;11.79;83.56;101093.38;5092178;28;20372;-59
2022/03/12 03:14:56;;;;;;;16.10;12.90;;;11.60;99.90;;;11.94;83.75;101088.88;5092133;28;20048;-59
2022/03/12 03:17:28;;;;;;;14.50;12.98;;;11.60;99.90;;;11.85;83.44;101080.94;5092149;28;20480;-60
2022/03/12 03:19:56;;;;;;;16.30;12.95;;;11.60;99.90;;;11.70;83.66;101105.78;5092241;28;20440;-59
2022/03/12 03:22:25;;;;;;;12.63;11.32;;;11.50;99.90;;;11.65;84.13;101092.56;5092233;28;20078;-59
2022/03/12 03:24:53;;;;;;;12.80;11.48;;;11.40;99.90;;;11.67;83.79;101088.13;5092413;28;20044;-59
2022/03/12 03:27:22;;;;;;;12.52;11.13;;;11.50;99.90;;;11.73;84.11;101111.94;5092386;28;20575;-60
2022/03/12 03:29:51;;;;;;;14.40;11.50;;;11.50;99.90;;;11.85;83.85;101080.94;5092715;28;20094;-59
2022/03/12 03:32:19;;;;;;;13.07;11.30;;;11.60;99.90;;;11.75;83.87;101090.72;5092089;28;20466;-59
2022/03/12 03:34:48;;;;;;;13.65;11.57;;;11.50;99.90;;;11.78;83.58;101103.97;5092238;28;20524;-59
2022/03/12 03:37:17;;;;;;;16.08;11.23;;;11.50;99.90;;;11.77;83.64;101113.69;5092063;28;20138;-59
2022/03/12 03:39:45;;;;;;;13.00;11.68;;;11.50;99.90;;;11.75;83.88;101118.13;5092030;28;20156;-60
2022/03/12 03:42:22;;;;;;;14.10;11.50;;;11.50;99.90;;;11.81;83.56;101116.34;5092433;28;20040;-59
2022/03/12 03:44:52;;;;;;;13.05;11.60;;;11.60;99.90;;;11.76;83.63;101114.59;5092229;28;20047;-60
2022/03/12 03:47:20;;;;;;;12.20;10.40;;;11.50;99.90;;;11.62;84.21;101108.44;5074214;28;20487;-60
2022/03/12 03:49:48;;;;;;;12.18;10.57;;;11.40;99.90;;;11.77;83.83;101108.41;5092485;28;20040;-59
2022/03/12 03:52:16;;;;;;;13.18;10.73;;;11.50;99.90;;;11.81;83.52;101111.91;5092048;28;20070;-59
2022/03/12 03:54:45;;;;;;;12.77;10.70;;;11.50;99.90;;;11.84;83.53;101101.31;5092333;28;20044;-59
2022/03/12 03:57:17;;;;;;;12.63;11.07;;;11.60;99.90;;;11.94;83.35;101104.78;5092030;28;20131;-59
2022/03/12 03:59:46;;;;;;;12.80;11.05;;;11.60;99.90;;;11.92;82.98;101110.09;5091916;28;20498;-59
2022/03/12 04:02:15;;;;;;;11.48;10.25;;;11.70;99.90;;;12.02;83.01;101108.25;5091952;28;20492;-59
2022/03/12 04:04:43;;;;;;;12.20;10.68;;;11.70;99.90;;;12.01;82.29;101123.28;5092100;28;20036;-59
2022/03/12 04:07:13;;;;;;;11.20;9.40;;;11.80;99.90;;;11.78;82.71;101120.78;5091860;28;20102;-60
2022/03/12 04:09:42;;;;;;;12.77;10.82;;;11.70;99.90;;;11.93;82.91;101116.25;5092174;28;20484;-59
2022/03/12 04:12:11;;;;;;;12.73;9.80;;;11.60;99.90;;;11.81;82.98;101126.94;5095763;28;20077;-59
2022/03/12 04:14:39;;;;;;;12.05;10.70;;;11.60;99.90;;;11.75;83.56;101128.72;5095679;28;20127;-59
2022/03/12 04:17:12;;;;;;;11.35;10.15;;;11.60;99.90;;;11.84;83.05;101118.97;5096491;28;20044;-61
2022/03/12 04:19:40;;;;;;;10.70;9.60;;;11.50;99.90;;;11.79;82.99;101127.81;5095862;28;20062;-59
2022/03/12 04:22:18;;;;;;;12.93;10.07;;;11.60;99.90;;;11.64;83.23;101119.91;5093643;28;20075;-59
2022/03/12 04:24:46;;;;;;;12.00;9.70;;;11.40;99.90;;;11.58;83.26;101127.88;5096046;28;20040;-59
2022/03/12 04:27:14;;;;;;;17.02;10.02;;;11.40;99.90;;;11.47;83.63;101124.41;5096132;28;20109;-59
2022/03/12 04:29:43;;;;;;;10.35;9.35;;;11.30;99.90;;;11.52;83.64;101129.66;5077910;28;20040;-59
2022/03/12 04:32:12;;;;;;;10.45;9.20;;;11.30;99.90;;;11.56;83.41;101119.06;5095517;28;20067;-59
2022/03/12 04:34:41;;;;;;;11.98;9.75;;;11.30;99.90;;;11.39;83.70;101126.22;5095312;28;20096;-59
2022/03/12 04:37:11;;;;;;;11.20;9.38;;;11.20;99.90;;;11.46;83.29;101132.34;5095641;28;20044;-59
2022/03/12 04:39:40;;;;;;;10.85;9.68;;;11.20;99.90;;;11.41;83.49;101132.38;5095518;28;20121;-59
2022/03/12 04:42:09;;;;;;;12.45;9.73;;;11.20;99.90;;;11.30;83.69;101135.94;5095454;28;20173;-59
2022/03/12 04:44:37;;;;;;;10.20;9.13;;;11.10;99.90;;;11.26;83.97;101158.03;5095384;28;20048;-59
2022/03/12 04:47:07;;;;;;;10.50;9.38;;;11.00;99.90;;;11.22;84.38;101145.69;5095255;28;20040;-60
2022/03/12 04:49:37;;;;;;;11.93;9.32;;;11.00;99.90;;;11.31;84.09;101138.59;5095254;28;20040;-60
2022/03/12 04:52:06;;;;;;;12.00;9.55;;;11.00;99.90;;;11.24;83.95;101142.16;5095627;28;20288;-59
2022/03/12 04:54:35;;;;;;;11.48;8.98;;;11.00;99.90;;;11.28;83.90;101143.03;5095047;28;20040;-59
2022/03/12 04:57:05;;;;;;;10.43;9.32;;;11.00;99.90;;;11.20;84.16;101147.44;5095039;28;20082;-59
2022/03/12 04:59:33;;;;;;;10.23;8.35;;;11.00;99.90;;;11.22;84.11;101159.81;5094682;28;20113;-59
2022/03/12 05:02:03;;;;;;;10.23;8.98;;;11.00;99.90;;;11.19;84.23;101162.44;5094603;28;20050;-60
2022/03/12 05:04:32;;;;;;;10.88;9.25;;;11.00;99.90;;;11.15;84.43;101163.34;5095155;28;20055;-59
2022/03/12 05:07:07;;;;;;;9.95;8.77;;;10.90;99.90;;;11.23;83.82;101160.66;5094538;28;20488;-59
2022/03/12 05:09:36;;;;;;;12.77;9.55;;;11.00;99.90;;;11.15;84.15;101179.22;5094427;28;20036;-61
2022/03/12 05:12:06;;;;;;;10.20;8.52;;;10.90;99.90;;;11.17;84.18;101164.22;5094367;28;20474;-61
2022/03/12 05:14:35;;;;;;;10.23;8.65;;;10.90;99.90;;;10.99;84.25;101153.69;5094236;28;20566;-59
2022/03/12 05:17:08;;;;;;;11.43;8.52;;;10.90;99.90;;;11.09;84.56;101187.16;5094654;28;20044;-59
2022/03/12 05:19:37;;;;;;;11.30;8.80;;;10.80;99.90;;;10.99;84.72;101187.19;5094855;28;20044;-60
2022/03/12 05:22:08;;;;;;;9.32;8.38;;;10.80;99.90;;;11.01;84.84;101167.78;5093564;28;20105;-59
2022/03/12 05:24:37;;;;;;;10.95;8.80;;;10.70;99.90;;;11.03;84.83;101173.97;5094535;28;20109;-59
2022/03/12 05:27:06;;;;;;;11.10;8.77;;;10.80;99.90;;;11.09;84.36;101175.72;5094343;28;20044;-59
2022/03/12 05:29:37;;;;;;;11.10;8.73;;;10.80;99.90;;;11.03;84.23;101173.97;5094594;28;20055;-59
2022/03/12 05:32:12;;;;;;;11.07;8.65;;;10.80;99.90;;;11.12;84.04;101173.06;5094133;28;20395;-59
2022/03/12 05:34:42;;;;;;;12.40;9.45;;;10.80;99.90;;;10.60;84.36;101100.81;5094021;28;20040;-59
2022/03/12 05:37:11;;;;;;;10.50;8.57;;;10.80;99.90;;;11.06;84.05;101178.34;5094214;28;20052;-60
2022/03/12 05:39:40;;;;;;;10.70;8.90;;;10.80;99.90;;;11.03;83.90;101195.16;5094285;28;20355;-60
2022/03/12 05:42:09;;;;;;;10.73;8.40;;;10.80;99.90;;;11.08;84.24;101188.06;5093806;28;20044;-59
2022/03/12 05:44:38;;;;;;;15.43;9.10;;;10.80;99.90;;;11.08;84.02;101198.66;5075643;28;20048;-59
2022/03/12 05:47:09;;;;;;;10.00;8.75;;;10.80;99.90;;;11.05;84.04;101203.06;5093977;28;20443;-59
2022/03/12 05:49:38;;;;;;;10.07;8.00;;;10.80;99.90;;;11.00;84.07;101195.13;5093676;28;20051;-59
2022/03/12 05:52:10;;;;;;;9.75;8.60;;;10.80;99.90;;;11.01;83.97;101191.63;5093568;28;20066;-60
2022/03/12 05:54:39;;;;;;;13.75;8.63;;;10.80;99.90;;;10.98;83.95;101206.59;5093557;28;20036;-59
2022/03/12 05:57:08;;;;;;;12.53;8.37;;;10.80;99.90;;;10.93;84.04;101214.56;5093363;28;20453;-60
2022/03/12 05:59:36;;;;;;;11.23;8.30;;;10.70;99.90;;;11.01;83.86;101206.59;5093431;28;20107;-60
2022/03/12 06:02:05;;;;;;;11.48;8.80;;;10.80;99.90;;;11.04;84.02;101191.59;5093401;28;20040;-59
2022/03/12 06:04:34;;;;;;;10.05;9.05;;;10.80;99.90;;;11.16;83.53;101206.59;5093544;28;20134;-59
2022/03/12 06:07:03;;;;;;;10.63;8.93;;;10.90;99.90;;;11.24;82.52;101211.00;5093226;28;20501;-59
2022/03/12 06:09:32;;;;;;;11.73;8.13;;;11.00;99.90;;;11.33;82.30;101208.31;5093145;28;20059;-60
2022/03/12 06:12:02;;;;;;;15.43;8.48;;;11.00;99.90;;;11.42;81.48;101210.06;5093408;28;20059;-59
2022/03/12 06:14:31;;;;;;;12.13;8.05;;;11.10;99.90;;;11.41;81.44;101208.31;5093550;28;20449;-59
2022/03/12 06:16:59;;;;;;;14.32;8.80;;;11.20;99.90;;;11.30;81.78;101221.59;5092915;28;20044;-59
2022/03/12 06:19:29;;;;;;;10.80;8.27;;;11.10;99.90;;;11.24;81.99;101228.66;5075128;28;20409;-61
2022/03/12 06:21:58;;;;;;;13.40;8.38;;;11.00;99.90;;;11.24;81.90;101216.28;5092858;28;20068;-60
2022/03/12 06:24:26;;;;;;;10.13;7.63;;;11.00;99.90;;;11.32;81.61;101217.16;5093273;28;20393;-59
2022/03/12 06:26:54;;;;;;;10.68;8.52;;;11.10;99.90;;;11.37;81.25;101220.69;5092961;28;20051;-59
2022/03/12 06:29:24;;;;;;;11.95;7.45;;;11.10;99.90;;;11.41;80.94;101222.44;5092951;28;20067;-59
2022/03/12 06:31:52;;;;;;;10.30;7.60;;;11.10;99.90;;;11.39;80.86;101228.59;5093071;28;20044;-59
2022/03/12 06:34:22;;;;;;;10.63;8.02;;;11.10;99.90;;;11.48;80.65;101231.22;5092741;28;20044;-59
2022/03/12 06:36:50;;;;;;;9.10;7.75;;;11.20;99.90;;;11.40;80.80;101223.31;5092648;28;20515;-59
2022/03/12 06:39:19;;;;;;;10.60;7.28;;;11.20;99.90;;;11.45;80.47;101212.72;5092755;28;20044;-61
2022/03/12 06:41:53;;;;;;;15.05;8.13;;;11.20;99.90;;;11.54;79.97;101225.91;5092778;28;20440;-59
2022/03/12 06:44:30;;;;;;;12.75;7.47;;;11.20;99.90;;;11.57;79.93;101261.25;5093285;28;20040;-59
2022/03/12 06:46:58;;;;;;;11.43;7.72;;;11.30;99.90;;;11.43;79.97;101241.84;5092899;28;20076;-60
2022/03/12 06:49:27;;;;;;;13.70;7.95;;;11.20;99.90;;;11.61;79.98;101236.50;5092936;28;20572;-59
2022/03/12 06:51:56;;;;;;;11.63;7.95;;;11.30;99.90;;;11.58;79.86;101263.00;5093128;28;20044;-59
2022/03/12 06:54:26;;;;;;;;;;;11.30;99.90;;;11.69;79.77;101244.47;5093383;28;20064;-59
2022/03/12 06:56:55;;;;;;;14.50;7.97;;;11.40;99.90;;;11.59;80.04;101259.47;5092926;28;19981;-59
2022/03/12 06:59:26;;;;;;;14.23;7.80;;;11.40;99.90;;;11.65;79.98;101240.03;5092582;28;20457;-59
2022/03/12 07:01:54;;;;;;;11.45;7.53;;;11.40;99.90;;;11.69;79.93;101269.19;5092591;28;20105;-59
2022/03/12 07:04:23;;;;;;;11.57;7.60;;;11.40;99.90;;;11.67;79.72;101247.13;5092393;28;20459;-59
2022/03/12 07:06:52;;;;;;;11.48;7.78;;;11.40;99.90;;;11.72;79.81;101261.25;5092477;28;20469;-59
2022/03/12 07:09:20;;;;;;;11.23;8.02;;;11.50;99.90;;;11.85;79.90;101263.84;5092613;28;20040;-59
2022/03/12 07:11:50;;;;;;;11.65;8.20;;;11.50;99.90;;;11.95;79.50;101273.53;5092471;28;20105;-60
2022/03/12 07:14:19;;;;;;;11.15;8.25;;;11.60;99.90;;;11.89;79.55;101278.84;5092771;28;20086;-59
2022/03/12 07:16:49;;;;;;;12.93;8.00;;;11.60;99.90;;;11.87;79.09;101286.81;5092319;28;20493;-59
2022/03/12 07:19:17;;;;;;;13.95;8.23;;;11.60;99.90;;;11.79;79.50;101304.50;5092340;28;20070;-60
2022/03/12 07:21:46;;;;;;;12.45;8.30;;;11.60;99.90;;;11.85;79.46;101316.84;5092679;28;20151;-59
2022/03/12 07:24:14;;;;;;;12.45;8.25;;;11.60;99.90;;;11.63;79.55;101303.59;5092508;28;20043;-58
2022/03/12 07:26:44;;;;;;;11.50;8.18;;;11.40;99.90;;;11.76;79.48;101318.66;5092956;28;20046;-59
2022/03/12 07:29:13;;;;;;;12.40;8.63;;;11.50;99.90;;;11.71;79.93;101320.41;5092709;28;20052;-59
2022/03/12 07:31:41;;;;;;;12.85;8.90;;;11.40;99.90;;;11.70;79.97;101323.97;5092251;28;20118;-58
2022/03/12 07:34:12;;;;;;;14.05;9.02;;;11.50;99.90;;;11.65;79.66;101317.78;5092185;28;20048;-58
2022/03/12 07:36:41;;;;;;;12.18;8.00;;;11.40;99.90;;;11.47;80.32;101330.13;5092461;28;20044;-58
2022/03/12 07:39:09;;;;;;;13.07;8.13;;;11.30;99.90;;;11.56;80.29;101322.16;5092038;28;20150;-58
2022/03/12 07:41:38;;;;;;;11.05;9.15;;;11.30;99.90;;;11.68;80.08;101338.09;5092222;28;20531;-58
2022/03/12 07:44:08;;;;;;;12.43;9.02;;;11.40;99.90;;;11.81;79.98;101325.72;5091988;28;20511;-58
2022/03/12 07:46:36;;;;;;;13.65;9.45;;;11.50;99.90;;;11.68;79.65;101315.13;5095588;28;20358;-58
2022/03/12 07:49:05;;;;;;;15.07;8.80;;;11.60;99.90;;;11.88;79.30;101346.91;5096203;28;20074;-59
2022/03/12 07:51:35;;;;;;;10.20;7.95;;;11.70;99.90;;;11.94;78.85;101353.97;5096372;28;20047;-58
2022/03/12 07:54:06;;;;;;;10.52;7.88;;;11.70;99.90;;;12.03;78.40;101353.94;5096024;28;20047;-58
2022/03/12 07:56:35;;;;;;;13.40;8.35;;;11.70;99.90;;;11.70;77.80;101276.28;5095821;28;20047;-58
2022/03/12 07:59:04;;;;;;;11.68;8.75;;;11.90;99.90;;;12.39;77.29;101344.06;5095853;28;20122;-58
2022/03/12 08:01:33;;;;;;;12.73;7.78;;;12.10;99.90;;;12.49;77.13;101360.84;5095767;28;20033;-58
2022/03/12 08:04:04;;;;;;;12.35;7.78;;;12.20;99.90;;;12.43;76.79;101368.81;5096038;28;20058;-58
2022/03/12 08:06:33;;;;;;;10.82;8.00;;;12.20;99.90;;;12.56;76.09;101341.38;5095661;28;20114;-58
2022/03/12 08:09:04;;;;;;;10.82;7.85;;;12.30;99.90;;;12.76;75.85;101359.81;5095906;28;20481;-59
2022/03/12 08:11:34;;;;;;;12.93;7.13;;;12.50;99.90;;;12.83;75.03;101383.69;5095982;28;20058;-59
2022/03/12 08:14:06;;;;;;;13.57;6.72;;;12.50;99.90;;;12.88;73.94;101367.72;5095579;28;20040;-59
2022/03/12 08:16:37;;;;;;;12.00;6.72;;;12.60;99.90;;;13.02;72.90;101365.88;5095701;28;20044;-59
2022/03/12 08:19:09;;;;;;;14.23;7.18;;;12.70;99.90;;;13.28;72.65;101390.50;5095442;28;20051;-58
2022/03/12 08:21:39;;;;;;;14.57;7.03;;;12.90;99.90;;;13.33;71.89;101405.53;5095287;28;20060;-59
2022/03/12 08:24:15;;;;;;;11.82;6.57;;;13.00;99.90;;;13.31;71.67;101402.00;5095217;28;20050;-59
2022/03/12 08:26:44;;;;;;;10.55;6.45;;;13.00;99.90;;;13.00;71.12;101372.97;5095360;28;20382;-60
2022/03/12 08:29:15;;;;;;;11.23;6.22;;;12.80;99.90;;;13.06;70.99;101375.63;5095193;28;20040;-59
2022/03/12 08:31:44;;;;;;;11.52;6.35;;;12.80;99.90;;;13.02;71.03;101380.03;5094791;28;20043;-59
2022/03/12 08:34:14;;;;;;;11.48;6.47;;;12.70;99.90;;;13.05;71.79;101408.34;5095049;28;20044;-60
2022/03/12 08:36:44;;;;;;;12.47;5.93;;;12.70;99.90;;;12.85;71.98;101407.56;5095070;28;20040;-61
2022/03/12 08:39:16;;;;;;;12.82;6.90;;;12.60;99.90;;;12.80;71.94;101419.97;5095369;28;20095;-60
2022/03/12 08:41:45;;;;;;;9.38;6.07;;;12.50;99.90;;;12.52;72.27;101398.84;5095236;28;20472;-60
2022/03/12 08:44:15;;;;;;;7.70;5.82;;;12.40;99.90;;;12.44;72.62;101416.59;5095069;28;20052;-62
2022/03/12 08:46:46;;;;;;;9.07;6.35;;;12.20;99.90;;;12.47;73.38;101402.41;5094962;28;20105;-60
2022/03/12 08:49:16;;;;;;;12.65;6.28;;;12.20;99.90;;;12.41;73.36;101421.88;5094746;28;20397;-59
2022/03/12 08:51:44;;;;;;;9.05;6.43;;;12.10;99.90;;;12.36;72.52;101433.41;5094633;28;20119;-59
2022/03/12 08:54:14;;;;;;;10.65;6.32;;;12.00;99.90;;;12.30;73.27;101433.41;5094794;28;20067;-59
2022/03/12 08:56:43;;;;;;;12.88;6.22;;;12.00;99.90;;;12.22;73.87;101454.66;5093077;28;20068;-59
2022/03/12 08:59:12;;;;;;;8.30;5.82;;;12.00;99.90;;;12.00;73.56;101436.13;5094468;28;20072;-59
2022/03/12 09:01:43;;;;;;;8.60;6.13;;;11.90;99.90;;;12.08;74.54;101440.53;5094649;28;20067;-59
2022/03/12 09:04:13;;;;;;;7.45;5.95;;;11.90;99.90;;;12.18;74.42;101426.38;5094453;28;20136;-59
2022/03/12 09:06:42;;;;;;;10.93;6.72;;;11.90;99.90;;;12.18;73.91;101428.13;5094444;28;20072;-59
2022/03/12 09:09:10;;;;;;;11.20;6.78;;;11.90;99.90;;;12.23;74.11;101429.03;5094177;28;20390;-60
2022/03/12 09:11:40;;;;;;;10.73;6.10;;;11.90;99.90;;;12.23;74.12;101450.25;5094151;28;20054;-58
2022/03/12 09:14:10;;;;;;;12.40;6.88;;;11.90;99.90;;;12.20;74.34;101435.22;5094254;28;20048;-59
2022/03/12 09:16:40;;;;;;;13.37;6.53;;;11.90;99.90;;;12.14;74.36;101450.25;5094513;28;20048;-60
2022/03/12 09:19:10;;;;;;;11.25;6.50;;;11.90;99.90;;;12.15;74.57;101467.94;5094433;28;20385;-60
2022/03/12 09:21:41;;;;;;;12.43;6.65;;;11.80;99.90;;;12.07;75.06;101416.66;5075813;28;20419;-61
2022/03/12 09:24:11;;;;;;;12.70;6.47;;;11.80;99.90;;;12.01;74.52;101422.88;5093981;28;20404;-60
2022/03/12 09:26:41;;;;;;;10.32;7.43;;;11.80;99.90;;;12.10;74.74;101436.09;5076035;28;20460;-60
2022/03/12 09:29:09;;;;;;;9.40;6.53;;;11.80;99.90;;;12.21;74.55;101422.84;5094119;28;20052;-61
2022/03/12 09:31:38;;;;;;;10.65;6.80;;;11.90;99.90;;;12.31;74.59;101432.53;5094117;28;20466;-59
2022/03/12 09:34:09;;;;;;;16.30;7.65;;;12.00;99.90;;;12.29;74.00;101426.38;5094474;28;20401;-59
2022/03/12 09:36:40;;;;;;;9.88;6.68;;;12.00;99.90;;;12.18;73.83;101460.84;5093879;28;20068;-59
2022/03/12 09:39:10;;;;;;;11.13;7.15;;;11.90;99.90;;;12.12;74.01;101430.78;5093815;28;20051;-58
2022/03/12 09:41:40;;;;;;;14.60;7.35;;;11.90;99.90;;;12.06;73.77;101438.78;5093997;28;20051;-61
2022/03/12 09:44:09;;;;;;;11.93;6.43;;;11.80;99.90;;;12.02;73.16;101451.13;5094537;28;20097;-61
2022/03/12 09:46:38;;;;;;;10.85;6.88;;;11.80;99.90;;;11.60;73.53;101375.16;5093790;28;20083;-61
2022/03/12 09:49:08;;;;;;;15.23;7.57;;;11.80;99.90;;;12.20;73.70;101460.84;5075864;28;20071;-60
2022/03/12 09:51:37;;;;;;;12.55;7.78;;;11.90;99.90;;;12.27;73.67;101447.56;5093964;28;20060;-60
2022/03/12 09:54:06;;;;;;;12.57;7.70;;;12.00;99.90;;;12.34;73.38;101451.09;5093899;28;20047;-60
2022/03/12 09:56:34;;;;;;;11.40;8.02;;;12.00;99.90;;;12.37;72.88;101444.00;5093521;28;20046;-60
2022/03/12 09:59:05;;;;;;;8.68;6.70;;;12.00;99.90;;;12.53;72.47;101452.81;5093571;28;20496;-59
2022/03/12 10:01:33;;;;;;;;;;;12.20;99.90;;;12.57;72.16;101442.19;5094262;28;20048;-67
2022/03/12 10:04:02;;;;;;;10.75;7.05;;;12.20;99.90;;;12.67;72.36;101451.00;5093640;28;20018;-64
2022/03/12 10:06:31;;;;;;;11.80;7.07;;;12.30;99.90;;;12.80;72.43;101451.81;5093409;28;20117;-59
2022/03/12 10:09:03;;;;;;;11.70;7.22;;;12.40;99.90;;;12.84;71.58;101462.44;5092919;28;20519;-65
2022/03/12 10:11:33;;;;;;;10.50;6.97;;;12.50;99.90;;;12.98;71.68;101452.63;5093434;28;20036;-61
2022/03/12 10:14:03;;;;;;;11.68;7.28;;;12.60;99.90;;;13.22;71.98;101463.16;5075589;28;20048;-62
2022/03/12 10:16:34;;;;;;;11.95;6.97;;;12.80;99.90;;;13.08;70.30;101465.03;5093438;28;20058;-61